sensor_id;sensor_type;location;lat;lon;timestamp;P1;durP1;ratioP1;P2;durP2;ratioP2
32705;SDS011;19094;50.972;3.538;2023-06-22T00:00:54;5.80;;;2.92;;
32705;SDS011;19094;50.972;3.538;2023-06-22T00:03:21;6.55;;;3.00;;
32705;SDS011;19094;50.972;3.538;2023-06-22T00:05:47;7.55;;;2.90;;
32705;SDS011;19094;50.972;3.538;2023-06-22T00:08:13;6.65;;;3.20;;
32705;SDS011;19094;50.972;3.538;2023-06-22T00:10:40;7.40;;;2.75;;
32705;SDS011;19094;50.972;3.538;2023-06-22T00:13:07;5.57;;;3.20;;
32705;SDS011;19094;50.972;3.538;2023-06-22T00:15:33;7.97;;;2.90;;
32705;SDS011;19094;50.972;3.538;2023-06-22T00:17:59;3.50;;;2.72;;
32705;SDS011;19094;50.972;3.538;2023-06-22T00:20:26;3.50;;;2.75;;
32705;SDS011;19094;50.972;3.538;2023-06-22T00:22:58;6.22;;;3.03;;
32705;SDS011;19094;50.972;3.538;2023-06-22T00:25:24;6.03;;;3.38;;
32705;SDS011;19094;50.972;3.538;2023-06-22T00:27:50;7.15;;;3.15;;
32705;SDS011;19094;50.972;3.538;2023-06-22T00:30:16;7.28;;;2.72;;
32705;SDS011;19094;50.972;3.538;2023-06-22T00:32:43;8.55;;;2.95;;
32705;SDS011;19094;50.972;3.538;2023-06-22T00:35:09;3.92;;;2.55;;
32705;SDS011;19094;50.972;3.538;2023-06-22T00:37:37;6.55;;;2.85;;
32705;SDS011;19094;50.972;3.538;2023-06-22T00:40:03;4.40;;;3.00;;
32705;SDS011;19094;50.972;3.538;2023-06-22T00:42:30;6.15;;;3.17;;
32705;SDS011;19094;50.972;3.538;2023-06-22T00:44:55;6.00;;;3.17;;
32705;SDS011;19094;50.972;3.538;2023-06-22T00:47:21;14.10;;;4.60;;
32705;SDS011;19094;50.972;3.538;2023-06-22T00:49:48;4.60;;;3.05;;
32705;SDS011;19094;50.972;3.538;2023-06-22T00:52:18;9.65;;;3.30;;
32705;SDS011;19094;50.972;3.538;2023-06-22T00:54:49;7.90;;;3.63;;
32705;SDS011;19094;50.972;3.538;2023-06-22T00:57:17;5.47;;;3.70;;
32705;SDS011;19094;50.972;3.538;2023-06-22T00:59:44;7.32;;;3.15;;
32705;SDS011;19094;50.972;3.538;2023-06-22T01:02:10;7.53;;;3.90;;
32705;SDS011;19094;50.972;3.538;2023-06-22T01:04:38;7.47;;;4.22;;
32705;SDS011;19094;50.972;3.538;2023-06-22T01:09:35;7.70;;;3.83;;
32705;SDS011;19094;50.972;3.538;2023-06-22T01:12:16;7.95;;;4.07;;
32705;SDS011;19094;50.972;3.538;2023-06-22T01:14:50;9.57;;;4.53;;
32705;SDS011;19094;50.972;3.538;2023-06-22T01:17:23;8.70;;;5.05;;
32705;SDS011;19094;50.972;3.538;2023-06-22T01:19:51;8.43;;;5.00;;
32705;SDS011;19094;50.972;3.538;2023-06-22T01:22:21;10.55;;;4.65;;
32705;SDS011;19094;50.972;3.538;2023-06-22T01:24:59;8.65;;;4.78;;
32705;SDS011;19094;50.972;3.538;2023-06-22T01:30:51;8.10;;;4.22;;
32705;SDS011;19094;50.972;3.538;2023-06-22T01:33:31;10.18;;;5.10;;
32705;SDS011;19094;50.972;3.538;2023-06-22T01:35:59;7.50;;;4.90;;
32705;SDS011;19094;50.972;3.538;2023-06-22T01:38:26;8.88;;;5.35;;
32705;SDS011;19094;50.972;3.538;2023-06-22T01:40:53;9.40;;;5.30;;
32705;SDS011;19094;50.972;3.538;2023-06-22T01:43:20;10.95;;;5.47;;
32705;SDS011;19094;50.972;3.538;2023-06-22T01:45:48;17.10;;;6.28;;
32705;SDS011;19094;50.972;3.538;2023-06-22T01:48:14;11.45;;;5.57;;
32705;SDS011;19094;50.972;3.538;2023-06-22T01:50:40;9.40;;;5.70;;
32705;SDS011;19094;50.972;3.538;2023-06-22T01:53:06;8.43;;;5.53;;
32705;SDS011;19094;50.972;3.538;2023-06-22T01:55:32;11.25;;;5.60;;
32705;SDS011;19094;50.972;3.538;2023-06-22T01:57:58;10.02;;;5.68;;
32705;SDS011;19094;50.972;3.538;2023-06-22T02:00:23;13.18;;;5.80;;
32705;SDS011;19094;50.972;3.538;2023-06-22T02:03:12;11.98;;;5.85;;
32705;SDS011;19094;50.972;3.538;2023-06-22T02:06:04;10.25;;;5.82;;
32705;SDS011;19094;50.972;3.538;2023-06-22T02:08:36;10.13;;;5.97;;
32705;SDS011;19094;50.972;3.538;2023-06-22T02:13:33;10.50;;;6.53;;
32705;SDS011;19094;50.972;3.538;2023-06-22T02:15:59;10.98;;;6.72;;
32705;SDS011;19094;50.972;3.538;2023-06-22T02:18:25;14.30;;;6.90;;
32705;SDS011;19094;50.972;3.538;2023-06-22T02:20:51;16.48;;;7.43;;
32705;SDS011;19094;50.972;3.538;2023-06-22T02:23:17;13.98;;;7.45;;
32705;SDS011;19094;50.972;3.538;2023-06-22T02:25:43;12.13;;;7.45;;
32705;SDS011;19094;50.972;3.538;2023-06-22T02:28:09;20.52;;;6.90;;
32705;SDS011;19094;50.972;3.538;2023-06-22T02:30:35;11.90;;;6.50;;
32705;SDS011;19094;50.972;3.538;2023-06-22T02:33:00;14.40;;;6.95;;
32705;SDS011;19094;50.972;3.538;2023-06-22T02:35:27;14.00;;;6.47;;
32705;SDS011;19094;50.972;3.538;2023-06-22T02:37:57;15.70;;;7.60;;
32705;SDS011;19094;50.972;3.538;2023-06-22T02:40:25;18.17;;;8.18;;
32705;SDS011;19094;50.972;3.538;2023-06-22T02:42:50;12.23;;;6.82;;
32705;SDS011;19094;50.972;3.538;2023-06-22T02:45:16;11.25;;;6.38;;
32705;SDS011;19094;50.972;3.538;2023-06-22T02:47:41;16.58;;;7.47;;
32705;SDS011;19094;50.972;3.538;2023-06-22T02:50:07;12.13;;;7.03;;
32705;SDS011;19094;50.972;3.538;2023-06-22T02:52:33;18.13;;;7.88;;
32705;SDS011;19094;50.972;3.538;2023-06-22T02:54:59;19.08;;;7.45;;
32705;SDS011;19094;50.972;3.538;2023-06-22T02:57:25;14.40;;;7.25;;
32705;SDS011;19094;50.972;3.538;2023-06-22T02:59:50;13.15;;;6.78;;
32705;SDS011;19094;50.972;3.538;2023-06-22T03:02:16;15.00;;;7.18;;
32705;SDS011;19094;50.972;3.538;2023-06-22T03:04:42;15.35;;;7.75;;
32705;SDS011;19094;50.972;3.538;2023-06-22T03:07:08;15.63;;;6.93;;
32705;SDS011;19094;50.972;3.538;2023-06-22T03:09:34;13.35;;;8.68;;
32705;SDS011;19094;50.972;3.538;2023-06-22T03:11:59;15.68;;;7.28;;
32705;SDS011;19094;50.972;3.538;2023-06-22T03:14:27;13.65;;;7.97;;
32705;SDS011;19094;50.972;3.538;2023-06-22T03:16:52;20.60;;;7.88;;
32705;SDS011;19094;50.972;3.538;2023-06-22T03:19:18;14.57;;;6.68;;
32705;SDS011;19094;50.972;3.538;2023-06-22T03:21:46;14.82;;;7.25;;
32705;SDS011;19094;50.972;3.538;2023-06-22T03:24:12;15.35;;;7.57;;
32705;SDS011;19094;50.972;3.538;2023-06-22T03:26:37;17.10;;;8.80;;
32705;SDS011;19094;50.972;3.538;2023-06-22T03:29:03;15.07;;;7.70;;
32705;SDS011;19094;50.972;3.538;2023-06-22T03:31:28;17.45;;;8.13;;
32705;SDS011;19094;50.972;3.538;2023-06-22T03:33:54;20.85;;;8.35;;
32705;SDS011;19094;50.972;3.538;2023-06-22T03:36:20;15.35;;;7.60;;
32705;SDS011;19094;50.972;3.538;2023-06-22T03:38:47;20.13;;;8.30;;
32705;SDS011;19094;50.972;3.538;2023-06-22T03:41:14;14.65;;;7.95;;
32705;SDS011;19094;50.972;3.538;2023-06-22T03:43:40;20.98;;;8.65;;
32705;SDS011;19094;50.972;3.538;2023-06-22T03:46:05;16.70;;;8.27;;
32705;SDS011;19094;50.972;3.538;2023-06-22T03:48:31;16.88;;;8.52;;
32705;SDS011;19094;50.972;3.538;2023-06-22T03:50:58;17.77;;;8.43;;
32705;SDS011;19094;50.972;3.538;2023-06-22T03:53:24;15.32;;;8.07;;
32705;SDS011;19094;50.972;3.538;2023-06-22T03:55:51;17.25;;;8.70;;
32705;SDS011;19094;50.972;3.538;2023-06-22T03:58:20;19.30;;;8.00;;
32705;SDS011;19094;50.972;3.538;2023-06-22T04:00:46;14.70;;;7.63;;
32705;SDS011;19094;50.972;3.538;2023-06-22T04:03:15;14.13;;;7.78;;
32705;SDS011;19094;50.972;3.538;2023-06-22T04:05:43;13.32;;;7.60;;
32705;SDS011;19094;50.972;3.538;2023-06-22T04:08:10;12.95;;;7.85;;
32705;SDS011;19094;50.972;3.538;2023-06-22T04:10:36;18.73;;;8.02;;
32705;SDS011;19094;50.972;3.538;2023-06-22T04:13:01;14.10;;;6.80;;
32705;SDS011;19094;50.972;3.538;2023-06-22T04:15:27;15.65;;;7.90;;
32705;SDS011;19094;50.972;3.538;2023-06-22T04:17:54;17.15;;;8.68;;
32705;SDS011;19094;50.972;3.538;2023-06-22T04:20:19;16.83;;;7.75;;
32705;SDS011;19094;50.972;3.538;2023-06-22T04:22:45;15.55;;;8.15;;
32705;SDS011;19094;50.972;3.538;2023-06-22T04:25:11;26.52;;;9.93;;
32705;SDS011;19094;50.972;3.538;2023-06-22T04:27:36;13.55;;;7.50;;
32705;SDS011;19094;50.972;3.538;2023-06-22T04:30:05;19.02;;;8.43;;
32705;SDS011;19094;50.972;3.538;2023-06-22T04:32:32;18.85;;;8.15;;
32705;SDS011;19094;50.972;3.538;2023-06-22T04:35:01;21.13;;;8.68;;
32705;SDS011;19094;50.972;3.538;2023-06-22T04:37:27;21.23;;;8.38;;
32705;SDS011;19094;50.972;3.538;2023-06-22T04:39:53;14.02;;;8.20;;
32705;SDS011;19094;50.972;3.538;2023-06-22T04:42:18;19.38;;;8.80;;
32705;SDS011;19094;50.972;3.538;2023-06-22T04:44:44;16.35;;;8.63;;
32705;SDS011;19094;50.972;3.538;2023-06-22T04:47:10;17.27;;;9.23;;
32705;SDS011;19094;50.972;3.538;2023-06-22T04:49:36;17.67;;;8.80;;
32705;SDS011;19094;50.972;3.538;2023-06-22T04:52:11;26.27;;;12.15;;
32705;SDS011;19094;50.972;3.538;2023-06-22T04:54:39;19.45;;;10.02;;
32705;SDS011;19094;50.972;3.538;2023-06-22T04:57:12;18.30;;;9.73;;
32705;SDS011;19094;50.972;3.538;2023-06-22T04:59:39;16.80;;;9.60;;
32705;SDS011;19094;50.972;3.538;2023-06-22T05:02:06;18.00;;;10.00;;
32705;SDS011;19094;50.972;3.538;2023-06-22T05:04:33;20.50;;;9.68;;
32705;SDS011;19094;50.972;3.538;2023-06-22T05:07:00;19.60;;;10.07;;
32705;SDS011;19094;50.972;3.538;2023-06-22T05:09:27;18.70;;;10.05;;
32705;SDS011;19094;50.972;3.538;2023-06-22T05:11:53;21.05;;;10.48;;
32705;SDS011;19094;50.972;3.538;2023-06-22T05:14:19;19.50;;;10.93;;
32705;SDS011;19094;50.972;3.538;2023-06-22T05:16:45;22.25;;;10.35;;
32705;SDS011;19094;50.972;3.538;2023-06-22T05:19:11;20.88;;;10.45;;
32705;SDS011;19094;50.972;3.538;2023-06-22T05:21:37;19.95;;;10.57;;
32705;SDS011;19094;50.972;3.538;2023-06-22T05:24:03;20.20;;;10.02;;
32705;SDS011;19094;50.972;3.538;2023-06-22T05:26:31;21.23;;;10.85;;
32705;SDS011;19094;50.972;3.538;2023-06-22T05:28:58;20.88;;;10.75;;
32705;SDS011;19094;50.972;3.538;2023-06-22T05:31:26;26.27;;;10.68;;
32705;SDS011;19094;50.972;3.538;2023-06-22T05:33:53;19.95;;;10.35;;
32705;SDS011;19094;50.972;3.538;2023-06-22T05:36:19;18.98;;;10.95;;
32705;SDS011;19094;50.972;3.538;2023-06-22T05:38:46;26.90;;;12.25;;
32705;SDS011;19094;50.972;3.538;2023-06-22T05:41:12;20.10;;;11.32;;
32705;SDS011;19094;50.972;3.538;2023-06-22T05:43:39;23.77;;;11.35;;
32705;SDS011;19094;50.972;3.538;2023-06-22T05:46:05;18.85;;;10.38;;
32705;SDS011;19094;50.972;3.538;2023-06-22T05:48:31;22.55;;;11.15;;
32705;SDS011;19094;50.972;3.538;2023-06-22T05:50:57;20.98;;;11.65;;
32705;SDS011;19094;50.972;3.538;2023-06-22T05:53:23;20.70;;;10.15;;
32705;SDS011;19094;50.972;3.538;2023-06-22T05:55:48;25.48;;;11.35;;
32705;SDS011;19094;50.972;3.538;2023-06-22T05:58:14;22.80;;;10.30;;
32705;SDS011;19094;50.972;3.538;2023-06-22T06:00:40;21.77;;;12.48;;
32705;SDS011;19094;50.972;3.538;2023-06-22T06:03:06;22.08;;;10.90;;
32705;SDS011;19094;50.972;3.538;2023-06-22T06:05:33;25.08;;;11.50;;
32705;SDS011;19094;50.972;3.538;2023-06-22T06:08:00;23.02;;;12.07;;
32705;SDS011;19094;50.972;3.538;2023-06-22T06:10:26;20.33;;;11.43;;
32705;SDS011;19094;50.972;3.538;2023-06-22T06:12:54;27.23;;;11.88;;
32705;SDS011;19094;50.972;3.538;2023-06-22T06:15:20;26.00;;;12.18;;
32705;SDS011;19094;50.972;3.538;2023-06-22T06:17:55;20.63;;;11.35;;
32705;SDS011;19094;50.972;3.538;2023-06-22T06:20:21;26.40;;;13.18;;
32705;SDS011;19094;50.972;3.538;2023-06-22T06:22:48;23.45;;;11.80;;
32705;SDS011;19094;50.972;3.538;2023-06-22T06:25:14;23.75;;;12.57;;
32705;SDS011;19094;50.972;3.538;2023-06-22T06:27:43;24.63;;;11.75;;
32705;SDS011;19094;50.972;3.538;2023-06-22T06:30:13;33.58;;;12.43;;
32705;SDS011;19094;50.972;3.538;2023-06-22T06:32:40;27.13;;;11.57;;
32705;SDS011;19094;50.972;3.538;2023-06-22T06:35:07;27.17;;;13.07;;
32705;SDS011;19094;50.972;3.538;2023-06-22T06:37:36;26.83;;;13.38;;
32705;SDS011;19094;50.972;3.538;2023-06-22T06:40:06;27.10;;;13.10;;
32705;SDS011;19094;50.972;3.538;2023-06-22T06:42:35;30.60;;;12.57;;
32705;SDS011;19094;50.972;3.538;2023-06-22T06:47:44;25.48;;;13.60;;
32705;SDS011;19094;50.972;3.538;2023-06-22T06:50:10;20.88;;;12.20;;
32705;SDS011;19094;50.972;3.538;2023-06-22T06:52:37;24.75;;;12.45;;
32705;SDS011;19094;50.972;3.538;2023-06-22T06:55:03;27.23;;;12.52;;
32705;SDS011;19094;50.972;3.538;2023-06-22T06:57:37;33.58;;;13.02;;
32705;SDS011;19094;50.972;3.538;2023-06-22T07:00:04;25.35;;;12.40;;
32705;SDS011;19094;50.972;3.538;2023-06-22T07:02:34;27.30;;;13.13;;
32705;SDS011;19094;50.972;3.538;2023-06-22T07:05:00;26.65;;;12.40;;
32705;SDS011;19094;50.972;3.538;2023-06-22T07:07:29;28.60;;;12.63;;
32705;SDS011;19094;50.972;3.538;2023-06-22T07:09:55;30.58;;;13.85;;
32705;SDS011;19094;50.972;3.538;2023-06-22T07:12:21;28.58;;;12.27;;
32705;SDS011;19094;50.972;3.538;2023-06-22T07:14:46;27.67;;;13.02;;
32705;SDS011;19094;50.972;3.538;2023-06-22T07:17:12;28.90;;;14.02;;
32705;SDS011;19094;50.972;3.538;2023-06-22T07:19:38;28.38;;;14.50;;
32705;SDS011;19094;50.972;3.538;2023-06-22T07:22:04;25.58;;;11.23;;
32705;SDS011;19094;50.972;3.538;2023-06-22T07:24:29;28.73;;;14.63;;
32705;SDS011;19094;50.972;3.538;2023-06-22T07:26:56;31.70;;;14.93;;
32705;SDS011;19094;50.972;3.538;2023-06-22T07:29:22;35.47;;;15.20;;
32705;SDS011;19094;50.972;3.538;2023-06-22T07:31:49;30.17;;;13.98;;
32705;SDS011;19094;50.972;3.538;2023-06-22T07:34:16;30.55;;;14.85;;
32705;SDS011;19094;50.972;3.538;2023-06-22T07:36:42;27.80;;;13.35;;
32705;SDS011;19094;50.972;3.538;2023-06-22T07:39:09;33.35;;;15.57;;
32705;SDS011;19094;50.972;3.538;2023-06-22T07:41:34;27.60;;;14.13;;
32705;SDS011;19094;50.972;3.538;2023-06-22T07:44:02;31.23;;;15.40;;
32705;SDS011;19094;50.972;3.538;2023-06-22T07:46:28;30.63;;;15.30;;
32705;SDS011;19094;50.972;3.538;2023-06-22T07:48:55;36.58;;;15.23;;
32705;SDS011;19094;50.972;3.538;2023-06-22T07:51:21;27.23;;;13.45;;
32705;SDS011;19094;50.972;3.538;2023-06-22T07:53:47;33.40;;;14.55;;
32705;SDS011;19094;50.972;3.538;2023-06-22T07:56:13;34.45;;;15.25;;
32705;SDS011;19094;50.972;3.538;2023-06-22T07:58:44;26.90;;;12.75;;
32705;SDS011;19094;50.972;3.538;2023-06-22T08:01:10;29.40;;;15.13;;
32705;SDS011;19094;50.972;3.538;2023-06-22T08:03:36;27.88;;;14.15;;
32705;SDS011;19094;50.972;3.538;2023-06-22T08:06:02;26.17;;;13.30;;
32705;SDS011;19094;50.972;3.538;2023-06-22T08:08:28;28.80;;;14.85;;
32705;SDS011;19094;50.972;3.538;2023-06-22T08:10:54;25.83;;;13.60;;
32705;SDS011;19094;50.972;3.538;2023-06-22T08:13:19;25.90;;;13.88;;
32705;SDS011;19094;50.972;3.538;2023-06-22T08:15:45;28.30;;;14.52;;
32705;SDS011;19094;50.972;3.538;2023-06-22T08:18:11;30.77;;;14.43;;
32705;SDS011;19094;50.972;3.538;2023-06-22T08:20:37;32.55;;;13.45;;
32705;SDS011;19094;50.972;3.538;2023-06-22T08:23:02;27.10;;;14.40;;
32705;SDS011;19094;50.972;3.538;2023-06-22T08:25:34;26.83;;;14.57;;
32705;SDS011;19094;50.972;3.538;2023-06-22T08:28:00;27.73;;;13.60;;
32705;SDS011;19094;50.972;3.538;2023-06-22T08:30:27;30.35;;;14.70;;
32705;SDS011;19094;50.972;3.538;2023-06-22T08:32:53;29.50;;;15.98;;
32705;SDS011;19094;50.972;3.538;2023-06-22T08:35:20;39.42;;;16.00;;
32705;SDS011;19094;50.972;3.538;2023-06-22T08:37:47;32.03;;;15.70;;
32705;SDS011;19094;50.972;3.538;2023-06-22T08:40:18;34.60;;;17.20;;
32705;SDS011;19094;50.972;3.538;2023-06-22T08:42:45;35.75;;;18.50;;
32705;SDS011;19094;50.972;3.538;2023-06-22T08:45:11;29.15;;;16.92;;
32705;SDS011;19094;50.972;3.538;2023-06-22T08:47:38;30.83;;;16.25;;
32705;SDS011;19094;50.972;3.538;2023-06-22T08:50:06;38.95;;;18.90;;
32705;SDS011;19094;50.972;3.538;2023-06-22T08:52:33;44.60;;;19.20;;
32705;SDS011;19094;50.972;3.538;2023-06-22T08:54:59;50.55;;;23.10;;
32705;SDS011;19094;50.972;3.538;2023-06-22T08:57:25;47.30;;;21.48;;
32705;SDS011;19094;50.972;3.538;2023-06-22T08:59:51;48.10;;;21.00;;
32705;SDS011;19094;50.972;3.538;2023-06-22T09:02:18;40.58;;;19.33;;
32705;SDS011;19094;50.972;3.538;2023-06-22T09:04:45;34.17;;;17.65;;
32705;SDS011;19094;50.972;3.538;2023-06-22T09:07:11;29.20;;;14.63;;
32705;SDS011;19094;50.972;3.538;2023-06-22T09:09:37;31.90;;;16.73;;
32705;SDS011;19094;50.972;3.538;2023-06-22T09:12:03;35.85;;;16.05;;
32705;SDS011;19094;50.972;3.538;2023-06-22T09:14:29;27.92;;;15.55;;
32705;SDS011;19094;50.972;3.538;2023-06-22T09:16:55;25.92;;;15.43;;
32705;SDS011;19094;50.972;3.538;2023-06-22T09:19:21;31.77;;;15.85;;
32705;SDS011;19094;50.972;3.538;2023-06-22T09:21:47;32.03;;;16.05;;
32705;SDS011;19094;50.972;3.538;2023-06-22T09:24:12;28.77;;;14.65;;
32705;SDS011;19094;50.972;3.538;2023-06-22T09:26:38;31.42;;;14.13;;
32705;SDS011;19094;50.972;3.538;2023-06-22T09:29:04;31.35;;;16.08;;
32705;SDS011;19094;50.972;3.538;2023-06-22T09:31:31;30.83;;;16.48;;
32705;SDS011;19094;50.972;3.538;2023-06-22T09:33:57;30.17;;;15.82;;
32705;SDS011;19094;50.972;3.538;2023-06-22T09:36:22;30.10;;;16.27;;
32705;SDS011;19094;50.972;3.538;2023-06-22T09:38:48;28.25;;;15.45;;
32705;SDS011;19094;50.972;3.538;2023-06-22T09:41:21;28.65;;;15.82;;
32705;SDS011;19094;50.972;3.538;2023-06-22T09:43:47;31.30;;;16.40;;
32705;SDS011;19094;50.972;3.538;2023-06-22T09:46:14;30.77;;;16.52;;
32705;SDS011;19094;50.972;3.538;2023-06-22T09:48:40;28.52;;;15.77;;
32705;SDS011;19094;50.972;3.538;2023-06-22T09:51:06;30.23;;;15.63;;
32705;SDS011;19094;50.972;3.538;2023-06-22T09:53:32;33.13;;;16.17;;
32705;SDS011;19094;50.972;3.538;2023-06-22T09:55:59;29.35;;;16.23;;
32705;SDS011;19094;50.972;3.538;2023-06-22T09:58:25;34.50;;;17.58;;
32705;SDS011;19094;50.972;3.538;2023-06-22T10:00:51;34.60;;;16.95;;
32705;SDS011;19094;50.972;3.538;2023-06-22T10:03:18;29.75;;;16.42;;
32705;SDS011;19094;50.972;3.538;2023-06-22T10:05:43;35.30;;;16.60;;
32705;SDS011;19094;50.972;3.538;2023-06-22T10:08:09;28.95;;;16.15;;
32705;SDS011;19094;50.972;3.538;2023-06-22T10:10:35;30.85;;;15.88;;
32705;SDS011;19094;50.972;3.538;2023-06-22T10:13:09;32.53;;;15.82;;
32705;SDS011;19094;50.972;3.538;2023-06-22T10:15:35;28.58;;;15.98;;
32705;SDS011;19094;50.972;3.538;2023-06-22T10:18:01;36.67;;;16.48;;
32705;SDS011;19094;50.972;3.538;2023-06-22T10:20:27;26.92;;;16.35;;
32705;SDS011;19094;50.972;3.538;2023-06-22T10:22:53;34.22;;;17.65;;
32705;SDS011;19094;50.972;3.538;2023-06-22T10:25:19;34.90;;;17.65;;
32705;SDS011;19094;50.972;3.538;2023-06-22T10:27:44;32.90;;;17.85;;
32705;SDS011;19094;50.972;3.538;2023-06-22T10:30:10;31.05;;;18.05;;
32705;SDS011;19094;50.972;3.538;2023-06-22T10:32:38;34.17;;;18.63;;
32705;SDS011;19094;50.972;3.538;2023-06-22T10:35:04;32.72;;;17.45;;
32705;SDS011;19094;50.972;3.538;2023-06-22T10:37:30;31.27;;;16.52;;
32705;SDS011;19094;50.972;3.538;2023-06-22T10:39:56;30.40;;;17.73;;
32705;SDS011;19094;50.972;3.538;2023-06-22T10:42:21;31.48;;;17.45;;
32705;SDS011;19094;50.972;3.538;2023-06-22T10:44:47;32.50;;;17.83;;
32705;SDS011;19094;50.972;3.538;2023-06-22T10:47:13;37.80;;;17.52;;
32705;SDS011;19094;50.972;3.538;2023-06-22T10:49:39;31.08;;;16.83;;
32705;SDS011;19094;50.972;3.538;2023-06-22T10:52:07;29.42;;;16.92;;
32705;SDS011;19094;50.972;3.538;2023-06-22T10:54:34;34.20;;;16.40;;
32705;SDS011;19094;50.972;3.538;2023-06-22T10:57:00;33.65;;;17.52;;
32705;SDS011;19094;50.972;3.538;2023-06-22T10:59:26;34.42;;;16.17;;
32705;SDS011;19094;50.972;3.538;2023-06-22T11:01:53;26.30;;;14.50;;
32705;SDS011;19094;50.972;3.538;2023-06-22T11:04:20;27.15;;;13.95;;
32705;SDS011;19094;50.972;3.538;2023-06-22T11:06:46;27.95;;;14.32;;
32705;SDS011;19094;50.972;3.538;2023-06-22T11:09:13;24.50;;;13.02;;
32705;SDS011;19094;50.972;3.538;2023-06-22T11:11:43;23.42;;;12.48;;
32705;SDS011;19094;50.972;3.538;2023-06-22T11:14:09;25.88;;;13.25;;
32705;SDS011;19094;50.972;3.538;2023-06-22T11:16:35;23.85;;;12.65;;
32705;SDS011;19094;50.972;3.538;2023-06-22T11:19:00;24.55;;;13.15;;
32705;SDS011;19094;50.972;3.538;2023-06-22T11:21:26;28.67;;;13.07;;
32705;SDS011;19094;50.972;3.538;2023-06-22T11:23:52;23.52;;;12.57;;
32705;SDS011;19094;50.972;3.538;2023-06-22T11:26:17;30.60;;;13.23;;
32705;SDS011;19094;50.972;3.538;2023-06-22T11:28:43;24.95;;;12.95;;
32705;SDS011;19094;50.972;3.538;2023-06-22T11:31:09;23.35;;;11.40;;
32705;SDS011;19094;50.972;3.538;2023-06-22T11:33:34;29.17;;;12.73;;
32705;SDS011;19094;50.972;3.538;2023-06-22T11:36:00;23.92;;;12.00;;
32705;SDS011;19094;50.972;3.538;2023-06-22T11:38:26;21.05;;;11.60;;
32705;SDS011;19094;50.972;3.538;2023-06-22T11:40:51;20.55;;;10.48;;
32705;SDS011;19094;50.972;3.538;2023-06-22T11:43:17;22.25;;;11.20;;
32705;SDS011;19094;50.972;3.538;2023-06-22T11:45:42;20.75;;;11.85;;
32705;SDS011;19094;50.972;3.538;2023-06-22T11:48:08;22.70;;;9.88;;
32705;SDS011;19094;50.972;3.538;2023-06-22T11:50:34;23.40;;;10.75;;
32705;SDS011;19094;50.972;3.538;2023-06-22T11:53:01;28.55;;;12.65;;
32705;SDS011;19094;50.972;3.538;2023-06-22T11:55:28;24.58;;;11.90;;
32705;SDS011;19094;50.972;3.538;2023-06-22T11:57:55;29.85;;;12.18;;
32705;SDS011;19094;50.972;3.538;2023-06-22T12:00:25;25.73;;;11.88;;
32705;SDS011;19094;50.972;3.538;2023-06-22T12:02:51;24.48;;;12.73;;
32705;SDS011;19094;50.972;3.538;2023-06-22T12:05:20;25.67;;;12.55;;
32705;SDS011;19094;50.972;3.538;2023-06-22T12:07:49;26.63;;;12.93;;
32705;SDS011;19094;50.972;3.538;2023-06-22T12:10:15;25.08;;;13.48;;
32705;SDS011;19094;50.972;3.538;2023-06-22T12:12:41;27.45;;;13.18;;
32705;SDS011;19094;50.972;3.538;2023-06-22T12:15:08;26.20;;;13.25;;
32705;SDS011;19094;50.972;3.538;2023-06-22T12:17:35;34.00;;;14.38;;
32705;SDS011;19094;50.972;3.538;2023-06-22T12:20:01;27.90;;;14.00;;
32705;SDS011;19094;50.972;3.538;2023-06-22T12:22:30;34.75;;;16.23;;
32705;SDS011;19094;50.972;3.538;2023-06-22T12:24:59;27.98;;;14.00;;
32705;SDS011;19094;50.972;3.538;2023-06-22T12:27:25;33.55;;;16.02;;
32705;SDS011;19094;50.972;3.538;2023-06-22T12:29:51;29.20;;;16.17;;
32705;SDS011;19094;50.972;3.538;2023-06-22T12:32:17;35.72;;;16.15;;
32705;SDS011;19094;50.972;3.538;2023-06-22T12:34:43;32.10;;;15.73;;
32705;SDS011;19094;50.972;3.538;2023-06-22T12:37:09;31.25;;;15.40;;
32705;SDS011;19094;50.972;3.538;2023-06-22T12:39:35;35.35;;;15.90;;
32705;SDS011;19094;50.972;3.538;2023-06-22T12:42:01;30.85;;;15.50;;
32705;SDS011;19094;50.972;3.538;2023-06-22T12:44:26;28.92;;;15.40;;
32705;SDS011;19094;50.972;3.538;2023-06-22T12:46:52;28.00;;;13.75;;
32705;SDS011;19094;50.972;3.538;2023-06-22T12:49:18;24.50;;;13.25;;
32705;SDS011;19094;50.972;3.538;2023-06-22T12:51:43;31.08;;;12.45;;
32705;SDS011;19094;50.972;3.538;2023-06-22T12:54:10;21.17;;;10.63;;
32705;SDS011;19094;50.972;3.538;2023-06-22T12:56:36;22.65;;;11.27;;
32705;SDS011;19094;50.972;3.538;2023-06-22T12:59:03;30.73;;;11.70;;
32705;SDS011;19094;50.972;3.538;2023-06-22T13:01:29;19.83;;;10.25;;
32705;SDS011;19094;50.972;3.538;2023-06-22T13:03:55;19.67;;;10.38;;
32705;SDS011;19094;50.972;3.538;2023-06-22T13:06:21;23.20;;;10.43;;
32705;SDS011;19094;50.972;3.538;2023-06-22T13:08:47;19.02;;;10.85;;
32705;SDS011;19094;50.972;3.538;2023-06-22T13:11:13;23.75;;;10.20;;
32705;SDS011;19094;50.972;3.538;2023-06-22T13:13:39;33.90;;;10.95;;
32705;SDS011;19094;50.972;3.538;2023-06-22T13:16:05;30.73;;;10.43;;
32705;SDS011;19094;50.972;3.538;2023-06-22T13:18:30;19.98;;;10.35;;
32705;SDS011;19094;50.972;3.538;2023-06-22T13:20:56;30.02;;;10.70;;
32705;SDS011;19094;50.972;3.538;2023-06-22T13:23:23;36.72;;;9.98;;
32705;SDS011;19094;50.972;3.538;2023-06-22T13:25:48;27.25;;;9.88;;
32705;SDS011;19094;50.972;3.538;2023-06-22T13:28:14;31.48;;;9.30;;
32705;SDS011;19094;50.972;3.538;2023-06-22T13:30:41;21.60;;;9.25;;
32705;SDS011;19094;50.972;3.538;2023-06-22T13:33:08;18.98;;;9.70;;
32705;SDS011;19094;50.972;3.538;2023-06-22T13:35:34;24.48;;;9.88;;
32705;SDS011;19094;50.972;3.538;2023-06-22T13:38:00;25.27;;;10.43;;
32705;SDS011;19094;50.972;3.538;2023-06-22T13:40:26;19.98;;;9.07;;
32705;SDS011;19094;50.972;3.538;2023-06-22T13:42:52;28.30;;;9.40;;
32705;SDS011;19094;50.972;3.538;2023-06-22T13:45:17;20.75;;;8.57;;
32705;SDS011;19094;50.972;3.538;2023-06-22T13:47:44;24.65;;;10.13;;
32705;SDS011;19094;50.972;3.538;2023-06-22T13:50:10;35.60;;;10.50;;
32705;SDS011;19094;50.972;3.538;2023-06-22T13:52:38;18.23;;;9.82;;
32705;SDS011;19094;50.972;3.538;2023-06-22T13:55:04;21.90;;;10.35;;
32705;SDS011;19094;50.972;3.538;2023-06-22T13:57:31;24.70;;;10.88;;
32705;SDS011;19094;50.972;3.538;2023-06-22T13:59:58;19.90;;;11.05;;
32705;SDS011;19094;50.972;3.538;2023-06-22T14:02:25;25.15;;;12.95;;
32705;SDS011;19094;50.972;3.538;2023-06-22T14:04:51;27.10;;;13.60;;
32705;SDS011;19094;50.972;3.538;2023-06-22T14:07:17;22.45;;;12.30;;
32705;SDS011;19094;50.972;3.538;2023-06-22T14:09:44;34.95;;;15.45;;
32705;SDS011;19094;50.972;3.538;2023-06-22T14:12:10;34.35;;;17.23;;
32705;SDS011;19094;50.972;3.538;2023-06-22T14:14:36;43.22;;;18.10;;
32705;SDS011;19094;50.972;3.538;2023-06-22T14:17:03;36.63;;;19.58;;
32705;SDS011;19094;50.972;3.538;2023-06-22T14:19:29;37.17;;;19.65;;
32705;SDS011;19094;50.972;3.538;2023-06-22T14:21:55;41.70;;;19.27;;
32705;SDS011;19094;50.972;3.538;2023-06-22T14:24:22;41.95;;;19.50;;
32705;SDS011;19094;50.972;3.538;2023-06-22T14:26:48;38.60;;;19.27;;
32705;SDS011;19094;50.972;3.538;2023-06-22T14:29:13;42.97;;;21.15;;
32705;SDS011;19094;50.972;3.538;2023-06-22T14:31:39;38.00;;;19.13;;
32705;SDS011;19094;50.972;3.538;2023-06-22T14:34:05;36.80;;;18.67;;
32705;SDS011;19094;50.972;3.538;2023-06-22T14:36:31;37.55;;;19.35;;